sensor_id;sensor_type;location;lat;lon;timestamp;pressure;altitude;pressure_sealevel;temperature;humidity
47082;BME280;33066;49.296;14.470;2023-03-26T00:02:18;96240.04;;;12.10;35.63
47082;BME280;33066;49.296;14.470;2023-03-26T00:04:43;96240.04;;;12.22;35.45
47082;BME280;33066;49.296;14.470;2023-03-26T00:07:08;96242.78;;;12.02;35.42
47082;BME280;33066;49.296;14.470;2023-03-26T00:09:34;96239.21;;;12.39;35.36
47082;BME280;33066;49.296;14.470;2023-03-26T00:11:59;96239.55;;;12.49;35.22
47082;BME280;33066;49.296;14.470;2023-03-26T00:14:24;96237.26;;;12.53;35.25
47082;BME280;33066;49.296;14.470;2023-03-26T00:16:49;96238.25;;;12.52;35.14
47082;BME280;33066;49.296;14.470;2023-03-26T00:19:15;96241.29;;;12.50;35.21
47082;BME280;33066;49.296;14.470;2023-03-26T00:21:40;96238.78;;;12.50;35.21
47082;BME280;33066;49.296;14.470;2023-03-26T00:24:08;96243.92;;;12.63;35.13
47082;BME280;33066;49.296;14.470;2023-03-26T00:26:31;96243.83;;;12.63;35.11
47082;BME280;33066;49.296;14.470;2023-03-26T00:28:57;96251.43;;;12.39;35.08
47082;BME280;33066;49.296;14.470;2023-03-26T00:31:22;96247.92;;;12.54;35.13
47082;BME280;33066;49.296;14.470;2023-03-26T00:33:49;96245.82;;;12.48;35.23
47082;BME280;33066;49.296;14.470;2023-03-26T00:36:14;96238.42;;;12.17;35.30
47082;BME280;33066;49.296;14.470;2023-03-26T00:38:38;96240.49;;;12.36;35.34
47082;BME280;33066;49.296;14.470;2023-03-26T00:41:04;96237.30;;;12.49;35.34
47082;BME280;33066;49.296;14.470;2023-03-26T00:43:28;96237.13;;;12.25;35.38
47082;BME280;33066;49.296;14.470;2023-03-26T00:45:54;96226.01;;;12.61;35.13
47082;BME280;33066;49.296;14.470;2023-03-26T00:48:20;96227.95;;;12.59;35.25
47082;BME280;33066;49.296;14.470;2023-03-26T00:50:45;96227.54;;;12.18;35.15
47082;BME280;33066;49.296;14.470;2023-03-26T00:53:10;96228.82;;;12.46;35.14
47082;BME280;33066;49.296;14.470;2023-03-26T00:55:35;96232.02;;;12.30;35.10
47082;BME280;33066;49.296;14.470;2023-03-26T00:58:00;96231.19;;;12.62;35.01
47082;BME280;33066;49.296;14.470;2023-03-26T01:00:28;96228.73;;;12.96;34.93
47082;BME280;33066;49.296;14.470;2023-03-26T01:02:51;96223.04;;;12.95;34.83
47082;BME280;33066;49.296;14.470;2023-03-26T01:07:41;96213.94;;;13.03;34.15
47082;BME280;33066;49.296;14.470;2023-03-26T01:10:07;96213.32;;;12.87;34.32
47082;BME280;33066;49.296;14.470;2023-03-26T01:12:32;96211.61;;;12.97;34.46
47082;BME280;33066;49.296;14.470;2023-03-26T01:14:59;96213.99;;;12.47;34.72
47082;BME280;33066;49.296;14.470;2023-03-26T01:17:23;96216.37;;;12.67;34.78
47082;BME280;33066;49.296;14.470;2023-03-26T01:19:55;96214.43;;;12.90;34.78
47082;BME280;33066;49.296;14.470;2023-03-26T01:22:16;96213.08;;;12.68;34.79
47082;BME280;33066;49.296;14.470;2023-03-26T01:24:40;96213.09;;;12.82;34.84
47082;BME280;33066;49.296;14.470;2023-03-26T01:27:13;96214.16;;;12.63;34.90
47082;BME280;33066;49.296;14.470;2023-03-26T01:29:32;96212.14;;;12.63;34.83
47082;BME280;33066;49.296;14.470;2023-03-26T01:32:02;96210.04;;;12.41;34.90
47082;BME280;33066;49.296;14.470;2023-03-26T01:34:25;96209.87;;;12.60;34.87
47082;BME280;33066;49.296;14.470;2023-03-26T01:36:50;96210.13;;;12.72;34.85
47082;BME280;33066;49.296;14.470;2023-03-26T01:39:16;96213.72;;;12.82;34.60
47082;BME280;33066;49.296;14.470;2023-03-26T01:41:40;96215.08;;;12.54;34.67
47082;BME280;33066;49.296;14.470;2023-03-26T01:44:05;96223.38;;;13.14;34.62
47082;BME280;33066;49.296;14.470;2023-03-26T01:46:27;96227.30;;;12.81;34.58
47082;BME280;33066;49.296;14.470;2023-03-26T01:48:52;96230.21;;;13.02;34.34
47082;BME280;33066;49.296;14.470;2023-03-26T01:51:25;96230.69;;;12.81;34.30
47082;BME280;33066;49.296;14.470;2023-03-26T01:53:46;96229.48;;;13.14;34.29
47082;BME280;33066;49.296;14.470;2023-03-26T01:56:15;96227.84;;;13.21;34.19
47082;BME280;33066;49.296;14.470;2023-03-26T01:58:36;96228.72;;;13.35;34.23
47082;BME280;33066;49.296;14.470;2023-03-26T02:01:09;96231.20;;;13.48;34.21
47082;BME280;33066;49.296;14.470;2023-03-26T02:03:29;96230.08;;;13.49;33.97
47082;BME280;33066;49.296;14.470;2023-03-26T02:05:53;96229.70;;;13.48;34.16
47082;BME280;33066;49.296;14.470;2023-03-26T02:08:20;96229.97;;;13.53;33.89
47082;BME280;33066;49.296;14.470;2023-03-26T02:10:43;96227.38;;;13.35;33.94
47082;BME280;33066;49.296;14.470;2023-03-26T02:13:06;96230.34;;;13.49;33.85
47082;BME280;33066;49.296;14.470;2023-03-26T02:15:32;96228.82;;;13.30;34.14
47082;BME280;33066;49.296;14.470;2023-03-26T02:17:57;96233.20;;;13.32;34.14
47082;BME280;33066;49.296;14.470;2023-03-26T02:20:22;96230.00;;;13.43;34.27
47082;BME280;33066;49.296;14.470;2023-03-26T02:22:48;96233.48;;;13.40;34.13
47082;BME280;33066;49.296;14.470;2023-03-26T02:25:15;96232.22;;;13.38;34.27
47082;BME280;33066;49.296;14.470;2023-03-26T02:27:38;96234.55;;;13.51;34.41
47082;BME280;33066;49.296;14.470;2023-03-26T02:30:07;96233.66;;;13.24;34.39
47082;BME280;33066;49.296;14.470;2023-03-26T02:32:29;96231.40;;;13.26;34.53
47082;BME280;33066;49.296;14.470;2023-03-26T02:34:54;96226.14;;;13.12;34.60
47082;BME280;33066;49.296;14.470;2023-03-26T02:37:19;96221.14;;;12.83;34.63
47082;BME280;33066;49.296;14.470;2023-03-26T02:39:45;96219.00;;;13.32;34.76
47082;BME280;33066;49.296;14.470;2023-03-26T02:42:10;96218.66;;;12.77;34.80
47082;BME280;33066;49.296;14.470;2023-03-26T02:44:35;96219.01;;;12.71;34.83
47082;BME280;33066;49.296;14.470;2023-03-26T02:47:01;96222.18;;;12.87;34.77
47082;BME280;33066;49.296;14.470;2023-03-26T02:49:26;96218.94;;;13.11;34.76
47082;BME280;33066;49.296;14.470;2023-03-26T02:51:51;96219.37;;;12.80;34.82
47082;BME280;33066;49.296;14.470;2023-03-26T02:54:17;96215.96;;;12.68;34.87
47082;BME280;33066;49.296;14.470;2023-03-26T02:56:42;96216.06;;;12.63;34.96
47082;BME280;33066;49.296;14.470;2023-03-26T02:59:08;96215.10;;;12.79;35.08
47082;BME280;33066;49.296;14.470;2023-03-26T03:01:33;96212.99;;;12.87;35.07
47082;BME280;33066;49.296;14.470;2023-03-26T03:03:58;96215.93;;;13.13;35.09
47082;BME280;33066;49.296;14.470;2023-03-26T03:06:23;96216.73;;;12.65;35.08
47082;BME280;33066;49.296;14.470;2023-03-26T03:08:49;96212.80;;;12.70;35.17
47082;BME280;33066;49.296;14.470;2023-03-26T03:13:00;96209.87;;;12.97;34.58
47082;BME280;33066;49.296;14.470;2023-03-26T03:15:26;96208.13;;;13.46;34.48
47082;BME280;33066;49.296;14.470;2023-03-26T03:17:51;96207.13;;;13.14;34.55
47082;BME280;33066;49.296;14.470;2023-03-26T03:20:16;96206.26;;;12.99;34.49
47082;BME280;33066;49.296;14.470;2023-03-26T03:22:42;96205.36;;;13.24;34.46
47082;BME280;33066;49.296;14.470;2023-03-26T03:25:08;96205.99;;;13.38;34.50
47082;BME280;33066;49.296;14.470;2023-03-26T03:27:32;96202.75;;;13.18;34.38
47082;BME280;33066;49.296;14.470;2023-03-26T03:29:57;96201.64;;;13.41;34.28
47082;BME280;33066;49.296;14.470;2023-03-26T03:32:23;96203.67;;;13.50;34.23
47082;BME280;33066;49.296;14.470;2023-03-26T03:34:48;96205.65;;;13.27;34.25
47082;BME280;33066;49.296;14.470;2023-03-26T03:37:13;96203.30;;;13.37;34.30
47082;BME280;33066;49.296;14.470;2023-03-26T03:39:38;96203.84;;;13.49;34.16
47082;BME280;33066;49.296;14.470;2023-03-26T03:42:04;96200.44;;;13.82;33.99
47082;BME280;33066;49.296;14.470;2023-03-26T03:44:29;96198.85;;;13.36;33.96
47082;BME280;33066;49.296;14.470;2023-03-26T03:46:54;96201.40;;;13.89;33.90
47082;BME280;33066;49.296;14.470;2023-03-26T03:49:20;96200.96;;;13.67;33.87
47082;BME280;33066;49.296;14.470;2023-03-26T03:51:45;96201.83;;;13.70;33.76
47082;BME280;33066;49.296;14.470;2023-03-26T03:54:10;96199.06;;;13.69;33.80
47082;BME280;33066;49.296;14.470;2023-03-26T03:56:36;96201.25;;;13.67;33.74
47082;BME280;33066;49.296;14.470;2023-03-26T03:59:01;96204.39;;;13.38;33.72
47082;BME280;33066;49.296;14.470;2023-03-26T04:01:26;96205.55;;;13.49;33.74
47082;BME280;33066;49.296;14.470;2023-03-26T04:03:51;96201.96;;;13.54;33.94
47082;BME280;33066;49.296;14.470;2023-03-26T04:06:17;96202.07;;;13.55;34.08
47082;BME280;33066;49.296;14.470;2023-03-26T04:08:42;96201.09;;;13.31;34.02
47082;BME280;33066;49.296;14.470;2023-03-26T04:11:07;96199.36;;;13.33;34.04
47082;BME280;33066;49.296;14.470;2023-03-26T04:13:33;96197.59;;;13.47;34.01
47082;BME280;33066;49.296;14.470;2023-03-26T04:15:58;96195.98;;;13.24;34.01
47082;BME280;33066;49.296;14.470;2023-03-26T04:18:23;96201.02;;;13.16;33.85
47082;BME280;33066;49.296;14.470;2023-03-26T04:20:49;96195.09;;;13.00;33.97
47082;BME280;33066;49.296;14.470;2023-03-26T04:23:16;96202.07;;;13.22;33.98
47082;BME280;33066;49.296;14.470;2023-03-26T04:25:40;96201.37;;;13.20;34.13
47082;BME280;33066;49.296;14.470;2023-03-26T04:28:06;96207.99;;;12.94;34.21
47082;BME280;33066;49.296;14.470;2023-03-26T04:30:30;96200.53;;;12.88;34.09
47082;BME280;33066;49.296;14.470;2023-03-26T04:32:55;96196.99;;;13.03;34.23
47082;BME280;33066;49.296;14.470;2023-03-26T04:35:21;96200.26;;;13.39;34.29
47082;BME280;33066;49.296;14.470;2023-03-26T04:37:46;96194.23;;;12.96;34.12
47082;BME280;33066;49.296;14.470;2023-03-26T04:40:14;96193.73;;;13.02;33.95
47082;BME280;33066;49.296;14.470;2023-03-26T04:42:37;96190.70;;;13.04;33.82
47082;BME280;33066;49.296;14.470;2023-03-26T04:45:03;96193.17;;;13.28;33.81
47082;BME280;33066;49.296;14.470;2023-03-26T04:47:27;96191.93;;;12.99;33.72
47082;BME280;33066;49.296;14.470;2023-03-26T04:49:53;96191.12;;;13.08;33.70
47082;BME280;33066;49.296;14.470;2023-03-26T04:52:18;96190.93;;;13.20;33.68
47082;BME280;33066;49.296;14.470;2023-03-26T04:54:43;96190.00;;;13.26;33.48
47082;BME280;33066;49.296;14.470;2023-03-26T04:57:14;96189.82;;;13.21;33.59
47082;BME280;33066;49.296;14.470;2023-03-26T04:59:34;96188.46;;;13.34;33.43
47082;BME280;33066;49.296;14.470;2023-03-26T05:02:00;96186.39;;;13.11;33.46
47082;BME280;33066;49.296;14.470;2023-03-26T05:04:25;96190.00;;;13.39;33.49
47082;BME280;33066;49.296;14.470;2023-03-26T05:06:50;96191.91;;;13.15;33.53
47082;BME280;33066;49.296;14.470;2023-03-26T05:09:15;96191.71;;;13.53;33.44
47082;BME280;33066;49.296;14.470;2023-03-26T05:11:41;96190.42;;;13.26;33.37
47082;BME280;33066;49.296;14.470;2023-03-26T05:14:06;96184.03;;;13.72;33.15
47082;BME280;33066;49.296;14.470;2023-03-26T05:16:32;96182.63;;;13.44;32.96
47082;BME280;33066;49.296;14.470;2023-03-26T05:18:57;96182.31;;;13.66;32.66
47082;BME280;33066;49.296;14.470;2023-03-26T05:21:22;96179.65;;;13.63;33.25
47082;BME280;33066;49.296;14.470;2023-03-26T05:23:47;96181.17;;;13.83;32.63
47082;BME280;33066;49.296;14.470;2023-03-26T05:26:13;96184.76;;;13.77;32.66
47082;BME280;33066;49.296;14.470;2023-03-26T05:28:38;96180.46;;;13.81;34.02
47082;BME280;33066;49.296;14.470;2023-03-26T05:31:03;96181.40;;;13.84;32.77
47082;BME280;33066;49.296;14.470;2023-03-26T05:33:29;96182.50;;;13.83;32.63
47082;BME280;33066;49.296;14.470;2023-03-26T05:36:00;96178.33;;;13.64;32.60
47082;BME280;33066;49.296;14.470;2023-03-26T05:38:19;96176.49;;;13.87;32.53
47082;BME280;33066;49.296;14.470;2023-03-26T05:40:44;96175.10;;;13.72;32.46
47082;BME280;33066;49.296;14.470;2023-03-26T05:43:10;96177.05;;;13.84;32.43
47082;BME280;33066;49.296;14.470;2023-03-26T05:45:35;96176.82;;;14.12;32.36
47082;BME280;33066;49.296;14.470;2023-03-26T05:48:00;96177.57;;;14.22;32.43
47082;BME280;33066;49.296;14.470;2023-03-26T05:50:26;96175.28;;;14.26;32.51
47082;BME280;33066;49.296;14.470;2023-03-26T05:52:51;96176.44;;;14.32;32.69
47082;BME280;33066;49.296;14.470;2023-03-26T05:55:17;96171.68;;;14.07;32.57
47082;BME280;33066;49.296;14.470;2023-03-26T05:57:42;96166.98;;;14.12;32.57
47082;BME280;33066;49.296;14.470;2023-03-26T06:00:08;96169.94;;;14.13;32.78
47082;BME280;33066;49.296;14.470;2023-03-26T06:02:33;96167.49;;;14.39;32.61
47082;BME280;33066;49.296;14.470;2023-03-26T06:04:58;96169.12;;;14.23;32.46
47082;BME280;33066;49.296;14.470;2023-03-26T06:07:23;96170.75;;;14.16;32.52
47082;BME280;33066;49.296;14.470;2023-03-26T06:09:48;96173.69;;;14.10;32.50
47082;BME280;33066;49.296;14.470;2023-03-26T06:12:14;96174.32;;;14.07;32.90
47082;BME280;33066;49.296;14.470;2023-03-26T06:14:39;96177.05;;;14.05;32.66
47082;BME280;33066;49.296;14.470;2023-03-26T06:17:04;96174.05;;;14.02;32.74
47082;BME280;33066;49.296;14.470;2023-03-26T06:19:30;96169.84;;;14.24;33.23
47082;BME280;33066;49.296;14.470;2023-03-26T06:21:55;96166.61;;;14.35;33.38
47082;BME280;33066;49.296;14.470;2023-03-26T06:24:21;96168.62;;;14.15;33.66
47082;BME280;33066;49.296;14.470;2023-03-26T06:26:46;96169.50;;;14.22;33.86
47082;BME280;33066;49.296;14.470;2023-03-26T06:29:11;96171.33;;;14.36;33.50
47082;BME280;33066;49.296;14.470;2023-03-26T06:31:36;96171.79;;;14.09;33.85
47082;BME280;33066;49.296;14.470;2023-03-26T06:34:01;96173.31;;;14.27;34.04
47082;BME280;33066;49.296;14.470;2023-03-26T06:36:27;96174.94;;;13.94;34.15
47082;BME280;33066;49.296;14.470;2023-03-26T06:38:52;96172.18;;;13.91;33.98
47082;BME280;33066;49.296;14.470;2023-03-26T06:41:18;96171.16;;;13.96;33.99
47082;BME280;33066;49.296;14.470;2023-03-26T06:43:43;96163.84;;;14.03;33.76
47082;BME280;33066;49.296;14.470;2023-03-26T06:46:09;96155.96;;;13.82;33.26
47082;BME280;33066;49.296;14.470;2023-03-26T06:48:34;96157.09;;;13.91;33.84
47082;BME280;33066;49.296;14.470;2023-03-26T06:50:59;96152.34;;;13.81;33.48
47082;BME280;33066;49.296;14.470;2023-03-26T06:53:25;96147.54;;;13.87;33.16
47082;BME280;33066;49.296;14.470;2023-03-26T06:55:51;96141.03;;;13.52;33.25
47082;BME280;33066;49.296;14.470;2023-03-26T06:58:15;96139.31;;;13.71;33.22
47082;BME280;33066;49.296;14.470;2023-03-26T07:00:40;96139.67;;;13.80;33.13
47082;BME280;33066;49.296;14.470;2023-03-26T07:03:05;96135.03;;;14.04;33.01
47082;BME280;33066;49.296;14.470;2023-03-26T07:05:31;96132.58;;;13.92;32.77
47082;BME280;33066;49.296;14.470;2023-03-26T07:07:57;96131.86;;;14.07;32.60
47082;BME280;33066;49.296;14.470;2023-03-26T07:10:21;96131.60;;;13.95;32.82
47082;BME280;33066;49.296;14.470;2023-03-26T07:12:47;96130.45;;;14.05;32.30
47082;BME280;33066;49.296;14.470;2023-03-26T07:15:12;96131.27;;;14.58;32.23
47082;BME280;33066;49.296;14.470;2023-03-26T07:17:38;96130.16;;;14.25;31.83
47082;BME280;33066;49.296;14.470;2023-03-26T07:20:04;96125.97;;;14.57;32.40
47082;BME280;33066;49.296;14.470;2023-03-26T07:22:29;96132.29;;;14.59;31.68
47082;BME280;33066;49.296;14.470;2023-03-26T07:24:54;96131.25;;;14.40;32.02
47082;BME280;33066;49.296;14.470;2023-03-26T07:27:34;96131.90;;;14.29;31.74
47082;BME280;33066;49.296;14.470;2023-03-26T07:29:47;96134.35;;;14.13;31.81
47082;BME280;33066;49.296;14.470;2023-03-26T07:32:16;96133.36;;;13.99;31.94
47082;BME280;33066;49.296;14.470;2023-03-26T07:34:45;96127.93;;;14.20;31.76
47082;BME280;33066;49.296;14.470;2023-03-26T07:37:03;96126.81;;;13.67;31.73
47082;BME280;33066;49.296;14.470;2023-03-26T07:39:36;96112.63;;;14.00;31.42
47082;BME280;33066;49.296;14.470;2023-03-26T07:41:54;96101.49;;;14.19;31.81
47082;BME280;33066;49.296;14.470;2023-03-26T07:44:37;96103.81;;;14.58;31.20
47082;BME280;33066;49.296;14.470;2023-03-26T07:46:42;96093.44;;;14.69;30.42
47082;BME280;33066;49.296;14.470;2023-03-26T07:49:09;96095.41;;;14.68;31.02
47082;BME280;33066;49.296;14.470;2023-03-26T07:51:32;96093.68;;;14.41;30.97
47082;BME280;33066;49.296;14.470;2023-03-26T07:53:58;96096.25;;;14.26;31.19
47082;BME280;33066;49.296;14.470;2023-03-26T07:56:28;96094.30;;;14.75;31.13
47082;BME280;33066;49.296;14.470;2023-03-26T07:58:57;96092.61;;;14.71;30.87
47082;BME280;33066;49.296;14.470;2023-03-26T08:01:19;96091.47;;;14.82;30.75
47082;BME280;33066;49.296;14.470;2023-03-26T08:06:10;96076.80;;;14.60;30.17
47082;BME280;33066;49.296;14.470;2023-03-26T08:08:37;96078.93;;;14.68;29.99
47082;BME280;33066;49.296;14.470;2023-03-26T08:11:06;96065.70;;;14.38;30.32
47082;BME280;33066;49.296;14.470;2023-03-26T08:13:25;96062.09;;;14.79;29.97
47082;BME280;33066;49.296;14.470;2023-03-26T08:15:49;96057.40;;;15.17;29.71
47082;BME280;33066;49.296;14.470;2023-03-26T08:18:21;96065.23;;;15.10;29.56
47082;BME280;33066;49.296;14.470;2023-03-26T08:20:39;96055.19;;;15.02;29.45
47082;BME280;33066;49.296;14.470;2023-03-26T08:23:06;96043.74;;;15.17;29.61
47082;BME280;33066;49.296;14.470;2023-03-26T08:25:29;96041.05;;;15.12;29.33
47082;BME280;33066;49.296;14.470;2023-03-26T08:28:03;96038.16;;;15.52;29.29
47082;BME280;33066;49.296;14.470;2023-03-26T08:30:19;96022.14;;;15.46;29.22
47082;BME280;33066;49.296;14.470;2023-03-26T08:32:48;96020.30;;;15.06;28.88
47082;BME280;33066;49.296;14.470;2023-03-26T08:35:11;96018.60;;;15.11;29.28
47082;BME280;33066;49.296;14.470;2023-03-26T08:37:33;96014.20;;;15.20;29.18
47082;BME280;33066;49.296;14.470;2023-03-26T08:39:59;96019.44;;;15.29;29.18
47082;BME280;33066;49.296;14.470;2023-03-26T08:42:34;96009.76;;;15.16;28.91
47082;BME280;33066;49.296;14.470;2023-03-26T08:47:33;96000.53;;;15.36;28.94
47082;BME280;33066;49.296;14.470;2023-03-26T08:49:56;95995.41;;;15.54;29.09
47082;BME280;33066;49.296;14.470;2023-03-26T08:54:46;95992.33;;;15.58;29.02
47082;BME280;33066;49.296;14.470;2023-03-26T08:57:08;95989.02;;;15.67;28.52
47082;BME280;33066;49.296;14.470;2023-03-26T08:59:38;95994.46;;;15.85;28.82
47082;BME280;33066;49.296;14.470;2023-03-26T09:02:08;95993.10;;;15.70;28.11
47082;BME280;33066;49.296;14.470;2023-03-26T09:06:56;95987.10;;;16.41;28.72
47082;BME280;33066;49.296;14.470;2023-03-26T09:09:13;95986.79;;;16.54;28.28
47082;BME280;33066;49.296;14.470;2023-03-26T09:14:03;95982.65;;;15.56;27.98
47082;BME280;33066;49.296;14.470;2023-03-26T09:21:24;95974.92;;;15.99;28.07
47082;BME280;33066;49.296;14.470;2023-03-26T09:23:55;95968.26;;;16.28;26.86
47082;BME280;33066;49.296;14.470;2023-03-26T09:26:06;95967.05;;;16.26;27.02
47082;BME280;33066;49.296;14.470;2023-03-26T09:33:28;95963.50;;;16.00;27.26
47082;BME280;33066;49.296;14.470;2023-03-26T09:35:50;95958.78;;;16.41;27.33
47082;BME280;33066;49.296;14.470;2023-03-26T09:38:24;95945.08;;;16.64;27.15
47082;BME280;33066;49.296;14.470;2023-03-26T09:40:36;95943.36;;;16.32;26.96
47082;BME280;33066;49.296;14.470;2023-03-26T09:43:05;95938.31;;;16.65;26.80
47082;BME280;33066;49.296;14.470;2023-03-26T09:45:36;95933.98;;;16.77;27.03
47082;BME280;33066;49.296;14.470;2023-03-26T09:47:59;95935.17;;;16.64;27.16
47082;BME280;33066;49.296;14.470;2023-03-26T09:50:26;95933.91;;;16.92;27.16
47082;BME280;33066;49.296;14.470;2023-03-26T09:52:50;95928.83;;;16.61;27.03
47082;BME280;33066;49.296;14.470;2023-03-26T09:57:43;95922.87;;;16.83;26.60
47082;BME280;33066;49.296;14.470;2023-03-26T10:00:05;95920.10;;;16.69;26.77
47082;BME280;33066;49.296;14.470;2023-03-26T10:07:35;95909.38;;;16.60;26.48
47082;BME280;33066;49.296;14.470;2023-03-26T10:09:43;95905.03;;;16.52;26.28
47082;BME280;33066;49.296;14.470;2023-03-26T10:12:12;95899.96;;;16.93;26.32
47082;BME280;33066;49.296;14.470;2023-03-26T10:14:33;95899.29;;;17.18;26.11
47082;BME280;33066;49.296;14.470;2023-03-26T10:17:01;95906.53;;;16.71;25.59
47082;BME280;33066;49.296;14.470;2023-03-26T10:19:29;95890.90;;;16.96;25.62
47082;BME280;33066;49.296;14.470;2023-03-26T10:21:49;95889.51;;;16.72;25.21
47082;BME280;33066;49.296;14.470;2023-03-26T10:24:16;95879.82;;;16.89;25.17
47082;BME280;33066;49.296;14.470;2023-03-26T10:26:48;95882.98;;;16.68;25.03
47082;BME280;33066;49.296;14.470;2023-03-26T10:29:11;95883.25;;;16.37;25.20
47082;BME280;33066;49.296;14.470;2023-03-26T10:31:34;95883.12;;;16.39;25.69
47082;BME280;33066;49.296;14.470;2023-03-26T10:33:59;95875.17;;;16.38;25.55
47082;BME280;33066;49.296;14.470;2023-03-26T10:36:27;95866.17;;;16.39;25.47
47082;BME280;33066;49.296;14.470;2023-03-26T10:38:51;95862.76;;;16.66;25.37
47082;BME280;33066;49.296;14.470;2023-03-26T10:41:12;95858.68;;;16.55;24.93
47082;BME280;33066;49.296;14.470;2023-03-26T10:43:49;95856.51;;;16.25;25.49
47082;BME280;33066;49.296;14.470;2023-03-26T10:46:12;95852.40;;;16.58;25.85
47082;BME280;33066;49.296;14.470;2023-03-26T10:48:33;95847.37;;;16.37;25.85
47082;BME280;33066;49.296;14.470;2023-03-26T10:50:55;95840.54;;;16.25;26.06
47082;BME280;33066;49.296;14.470;2023-03-26T10:53:23;95826.98;;;16.46;25.58
47082;BME280;33066;49.296;14.470;2023-03-26T10:55:40;95828.77;;;16.76;25.38
47082;BME280;33066;49.296;14.470;2023-03-26T10:58:12;95840.68;;;16.61;25.15
47082;BME280;33066;49.296;14.470;2023-03-26T11:00:32;95834.12;;;16.62;25.29
47082;BME280;33066;49.296;14.470;2023-03-26T11:03:15;95836.68;;;16.29;25.51
47082;BME280;33066;49.296;14.470;2023-03-26T11:05:30;95830.88;;;16.50;25.91
47082;BME280;33066;49.296;14.470;2023-03-26T11:07:51;95843.01;;;16.02;25.89
47082;BME280;33066;49.296;14.470;2023-03-26T11:10:12;95841.70;;;16.12;25.92
47082;BME280;33066;49.296;14.470;2023-03-26T11:12:40;95834.70;;;15.99;26.08
47082;BME280;33066;49.296;14.470;2023-03-26T11:15:12;95824.87;;;16.22;26.18
47082;BME280;33066;49.296;14.470;2023-03-26T11:17:34;95821.43;;;16.07;25.97
47082;BME280;33066;49.296;14.470;2023-03-26T11:19:54;95812.53;;;15.95;26.19
47082;BME280;33066;49.296;14.470;2023-03-26T11:22:24;95810.54;;;16.42;26.35
47082;BME280;33066;49.296;14.470;2023-03-26T11:24:59;95810.67;;;16.66;26.30
47082;BME280;33066;49.296;14.470;2023-03-26T11:27:13;95802.46;;;16.53;26.30
47082;BME280;33066;49.296;14.470;2023-03-26T11:29:41;95798.08;;;16.48;26.42
47082;BME280;33066;49.296;14.470;2023-03-26T11:32:02;95793.71;;;16.82;26.77
47082;BME280;33066;49.296;14.470;2023-03-26T11:34:27;95791.82;;;16.66;26.66
47082;BME280;33066;49.296;14.470;2023-03-26T11:36:51;95789.78;;;16.86;26.64
47082;BME280;33066;49.296;14.470;2023-03-26T11:39:18;95800.78;;;16.60;26.71
47082;BME280;33066;49.296;14.470;2023-03-26T11:41:39;95800.75;;;16.25;26.96
47082;BME280;33066;49.296;14.470;2023-03-26T11:44:12;95799.72;;;16.59;27.17
47082;BME280;33066;49.296;14.470;2023-03-26T11:46:30;95798.74;;;16.17;27.30
47082;BME280;33066;49.296;14.470;2023-03-26T11:48:56;95792.10;;;16.26;27.50
47082;BME280;33066;49.296;14.470;2023-03-26T11:51:24;95791.98;;;16.38;27.35
47082;BME280;33066;49.296;14.470;2023-03-26T11:53:45;95788.71;;;16.45;27.36
47082;BME280;33066;49.296;14.470;2023-03-26T11:56:14;95782.30;;;16.45;27.41
47082;BME280;33066;49.296;14.470;2023-03-26T11:58:42;95784.99;;;16.30;27.60
47082;BME280;33066;49.296;14.470;2023-03-26T12:01:04;95776.91;;;16.53;27.65
47082;BME280;33066;49.296;14.470;2023-03-26T12:03:28;95779.83;;;16.60;27.43
47082;BME280;33066;49.296;14.470;2023-03-26T12:05:58;95777.72;;;16.23;27.35
47082;BME280;33066;49.296;14.470;2023-03-26T12:08:22;95776.58;;;16.21;27.51
47082;BME280;33066;49.296;14.470;2023-03-26T12:10:43;95778.16;;;16.24;27.57
47082;BME280;33066;49.296;14.470;2023-03-26T12:15:41;95786.02;;;16.07;28.18
47082;BME280;33066;49.296;14.470;2023-03-26T12:20:32;95773.10;;;15.55;29.16
47082;BME280;33066;49.296;14.470;2023-03-26T12:22:52;95769.99;;;15.78;29.61
47082;BME280;33066;49.296;14.470;2023-03-26T12:25:19;95768.02;;;15.76;29.84
47082;BME280;33066;49.296;14.470;2023-03-26T12:27:43;95770.08;;;15.57;30.28
47082;BME280;33066;49.296;14.470;2023-03-26T12:30:11;95777.29;;;15.78;31.01
47082;BME280;33066;49.296;14.470;2023-03-26T12:32:32;95779.72;;;15.63;30.88
47082;BME280;33066;49.296;14.470;2023-03-26T12:35:03;95782.02;;;15.79;31.25
47082;BME280;33066;49.296;14.470;2023-03-26T12:37:34;95779.22;;;16.02;31.43
47082;BME280;33066;49.296;14.470;2023-03-26T12:39:48;95776.77;;;15.71;31.59
47082;BME280;33066;49.296;14.470;2023-03-26T12:42:24;95776.86;;;15.79;31.70
47082;BME280;33066;49.296;14.470;2023-03-26T12:44:44;95779.61;;;15.49;32.32
47082;BME280;33066;49.296;14.470;2023-03-26T12:47:13;95784.84;;;15.34;32.78
47082;BME280;33066;49.296;14.470;2023-03-26T12:49:30;95788.35;;;15.43;32.70
47082;BME280;33066;49.296;14.470;2023-03-26T12:52:01;95779.35;;;15.35;32.50
47082;BME280;33066;49.296;14.470;2023-03-26T12:54:35;95784.40;;;15.46;32.58
47082;BME280;33066;49.296;14.470;2023-03-26T12:56:55;95780.70;;;15.11;32.73
47082;BME280;33066;49.296;14.470;2023-03-26T12:59:25;95777.97;;;15.13;32.61
47082;BME280;33066;49.296;14.470;2023-03-26T13:01:46;95780.47;;;15.40;32.80
47082;BME280;33066;49.296;14.470;2023-03-26T13:04:13;95786.91;;;15.31;33.17
47082;BME280;33066;49.296;14.470;2023-03-26T13:06:33;95779.00;;;14.81;33.92
47082;BME280;33066;49.296;14.470;2023-03-26T13:09:05;95776.78;;;15.05;33.93
47082;BME280;33066;49.296;14.470;2023-03-26T13:11:24;95772.86;;;15.20;35.18
47082;BME280;33066;49.296;14.470;2023-03-26T13:13:58;95772.01;;;15.09;35.25
47082;BME280;33066;49.296;14.470;2023-03-26T13:16:15;95772.96;;;15.05;35.18
47082;BME280;33066;49.296;14.470;2023-03-26T13:18:42;95771.48;;;15.14;35.13